createdAt,value
2018-07-25T00:01:07.606Z,45.39
2018-07-25T00:03:36.331Z,45.49
2018-07-25T00:06:05.118Z,45.11
2018-07-25T00:08:33.875Z,45.65
2018-07-25T00:11:02.676Z,44.91
2018-07-25T00:13:31.383Z,45.07
2018-07-25T00:16:01.345Z,45.89
2018-07-25T00:18:30.033Z,45.90
2018-07-25T00:20:58.856Z,45.67
2018-07-25T00:23:27.612Z,45.34
2018-07-25T00:25:56.406Z,45.76
2018-07-25T00:31:16.375Z,45.26
2018-07-25T00:33:45.219Z,45.64
2018-07-25T00:36:14.074Z,44.76
2018-07-25T00:38:42.880Z,45.55
2018-07-25T00:44:01.831Z,45.27
2018-07-25T00:46:31.262Z,44.44
2018-07-25T00:49:00.081Z,45.18
2018-07-25T00:51:28.923Z,44.56
2018-07-25T00:53:58.380Z,44.37
2018-07-25T00:56:27.099Z,44.71
2018-07-25T00:58:55.948Z,45.59
2018-07-25T01:01:25.150Z,45.14
2018-07-25T01:03:53.864Z,45.51
2018-07-25T01:06:22.797Z,44.70
2018-07-25T01:08:51.654Z,44.79
2018-07-25T01:11:20.434Z,45.00
2018-07-25T01:13:49.258Z,45.76
2018-07-25T01:16:18.314Z,46.06
2018-07-25T01:18:47.138Z,45.73
2018-07-25T01:21:15.884Z,44.84
2018-07-25T01:23:44.703Z,45.59
2018-07-25T01:26:13.500Z,44.83
2018-07-25T01:28:42.496Z,45.35
2018-07-25T01:31:11.258Z,45.92
2018-07-25T01:33:40.118Z,45.21
2018-07-25T01:36:08.890Z,45.10
2018-07-25T01:38:37.703Z,45.35
2018-07-25T01:41:06.504Z,46.07
2018-07-25T01:43:35.216Z,45.27
2018-07-25T01:46:04.095Z,45.41
2018-07-25T01:48:32.828Z,46.29
2018-07-25T01:51:01.538Z,45.30
2018-07-25T01:53:30.296Z,46.13
2018-07-25T01:55:59.082Z,45.32
2018-07-25T01:58:28.566Z,46.60
2018-07-25T02:00:57.297Z,45.47
2018-07-25T02:03:26.012Z,45.51
2018-07-25T02:05:54.860Z,45.53
2018-07-25T02:08:23.732Z,45.67
2018-07-25T02:10:52.640Z,45.89
2018-07-25T02:13:21.708Z,45.41
2018-07-25T02:15:51.079Z,45.70
2018-07-25T02:18:19.908Z,46.65
2018-07-25T02:20:48.676Z,45.90
2018-07-25T02:23:17.541Z,45.92
2018-07-25T02:25:46.387Z,46.79
2018-07-25T02:28:15.264Z,46.71
2018-07-25T02:30:44.004Z,46.71
2018-07-25T02:33:12.762Z,45.81
2018-07-25T02:35:41.703Z,45.97
2018-07-25T02:38:10.468Z,45.91
2018-07-25T02:40:39.321Z,46.49
2018-07-25T02:43:08.067Z,46.67
2018-07-25T02:45:41.760Z,46.90
2018-07-25T02:48:10.562Z,46.12
2018-07-25T02:50:39.315Z,46.18
2018-07-25T02:53:08.211Z,46.66
2018-07-25T02:55:37.059Z,45.79
2018-07-25T02:58:05.994Z,46.86
2018-07-25T03:00:35.416Z,46.03
2018-07-25T03:03:04.512Z,45.78
2018-07-25T03:05:33.341Z,45.65
2018-07-25T03:08:02.048Z,45.72
2018-07-25T03:10:30.815Z,45.62
2018-07-25T03:12:59.564Z,45.82
2018-07-25T03:15:28.574Z,46.64
2018-07-25T03:17:57.505Z,46.69
2018-07-25T03:20:27.399Z,45.56
2018-07-25T03:22:56.279Z,46.34
2018-07-25T03:25:25.032Z,46.26
2018-07-25T03:27:53.844Z,46.17
2018-07-25T03:30:22.535Z,45.33
2018-07-25T03:32:51.972Z,45.27
2018-07-25T03:35:20.734Z,45.40
2018-07-25T03:37:49.440Z,45.15
2018-07-25T03:40:18.197Z,46.01
2018-07-25T03:42:47.177Z,45.37
2018-07-25T03:45:16.661Z,45.24
2018-07-25T03:47:45.372Z,45.00
2018-07-25T03:50:14.096Z,45.66
2018-07-25T03:52:43.117Z,45.34
2018-07-25T03:55:11.885Z,45.19
2018-07-25T03:57:41.384Z,44.78
2018-07-25T04:00:10.900Z,45.63
2018-07-25T04:02:39.655Z,44.78
2018-07-25T04:05:08.686Z,45.29
2018-07-25T04:07:37.417Z,44.42
2018-07-25T04:10:06.891Z,44.72
2018-07-25T04:12:36.563Z,44.37
2018-07-25T04:15:05.355Z,44.92
2018-07-25T04:17:38.445Z,44.65
2018-07-25T04:20:07.719Z,44.31
2018-07-25T04:22:36.453Z,44.17
2018-07-25T04:25:05.768Z,44.82
2018-07-25T04:27:35.082Z,44.01
2018-07-25T04:30:04.483Z,44.18
2018-07-25T04:32:33.338Z,44.96
2018-07-25T04:35:02.680Z,44.07
2018-07-25T04:37:31.655Z,44.16
2018-07-25T04:40:00.376Z,44.46
2018-07-25T04:42:29.110Z,44.31
2018-07-25T04:44:57.824Z,44.27
2018-07-25T04:47:26.926Z,44.21
2018-07-25T04:49:56.071Z,44.84
2018-07-25T04:52:26.463Z,43.97
2018-07-25T04:54:55.235Z,44.58
2018-07-25T04:57:25.152Z,45.18
2018-07-25T04:59:54.288Z,43.95
2018-07-25T05:02:23.057Z,44.61
2018-07-25T05:04:52.105Z,44.47
2018-07-25T05:07:20.847Z,45.25
2018-07-25T05:09:49.858Z,43.95
2018-07-25T05:12:18.606Z,44.89
2018-07-25T05:14:47.339Z,44.89
2018-07-25T05:17:16.083Z,44.65
2018-07-25T05:19:44.972Z,45.04
2018-07-25T05:22:13.741Z,44.93
2018-07-25T05:24:42.586Z,45.02
2018-07-25T05:27:11.440Z,45.13
2018-07-25T05:29:40.178Z,44.10
2018-07-25T05:32:09.176Z,44.67
2018-07-25T05:34:37.899Z,45.22
2018-07-25T05:37:06.638Z,44.48
2018-07-25T05:39:35.351Z,45.25
2018-07-25T05:42:04.275Z,44.12
2018-07-25T05:44:33.176Z,44.61
2018-07-25T05:47:01.897Z,44.63
2018-07-25T05:49:30.762Z,45.00
2018-07-25T05:51:59.489Z,45.40
2018-07-25T05:54:28.802Z,44.08
2018-07-25T05:56:57.693Z,43.81
2018-07-25T05:59:26.472Z,44.53
2018-07-25T06:01:55.212Z,44.50
2018-07-25T06:04:24.086Z,44.93
2018-07-25T06:06:52.893Z,44.72
2018-07-25T06:09:21.647Z,44.96
2018-07-25T06:11:50.503Z,44.86
2018-07-25T06:14:19.461Z,44.74
2018-07-25T06:16:48.484Z,43.97
2018-07-25T06:19:17.256Z,44.06
2018-07-25T06:21:46.000Z,44.12
2018-07-25T06:24:14.758Z,44.10
2018-07-25T06:26:43.474Z,44.11
2018-07-25T06:29:12.230Z,44.15
2018-07-25T06:31:41.161Z,44.30
2018-07-25T06:34:09.923Z,43.98
2018-07-25T06:36:38.697Z,44.36
2018-07-25T06:39:10.037Z,44.22
2018-07-25T06:41:38.843Z,43.77
2018-07-25T06:44:07.871Z,44.40
2018-07-25T06:46:36.584Z,43.69
2018-07-25T06:49:05.992Z,44.33
2018-07-25T06:51:34.937Z,44.14
2018-07-25T06:54:03.702Z,43.29
2018-07-25T06:56:33.172Z,43.75
2018-07-25T06:59:01.890Z,44.38
2018-07-25T07:01:30.933Z,43.28
2018-07-25T07:03:59.827Z,43.54
2018-07-25T07:06:28.591Z,44.87
2018-07-25T07:08:57.483Z,45.29
2018-07-25T07:11:26.301Z,46.77
2018-07-25T07:13:55.217Z,44.19
2018-07-25T07:16:24.875Z,43.87
2018-07-25T07:18:53.698Z,44.24
2018-07-25T07:21:22.484Z,45.75
2018-07-25T07:23:51.245Z,45.95
2018-07-25T07:26:20.332Z,45.35
2018-07-25T07:28:49.156Z,44.87
2018-07-25T07:31:18.422Z,43.70
2018-07-25T07:33:47.737Z,46.92
2018-07-25T07:36:19.051Z,45.87
2018-07-25T07:38:47.949Z,45.38
2018-07-25T07:41:16.841Z,44.29
2018-07-25T07:43:45.667Z,43.69
2018-07-25T07:46:16.112Z,43.21
2018-07-25T07:48:45.917Z,42.50
2018-07-25T07:51:14.767Z,42.56
2018-07-25T07:53:44.329Z,43.42
2018-07-25T07:56:14.065Z,42.94
2018-07-25T07:58:43.087Z,42.10
2018-07-25T08:01:11.927Z,42.36
2018-07-25T08:03:41.339Z,41.60
2018-07-25T08:06:13.033Z,39.04
2018-07-25T08:08:41.821Z,38.83
2018-07-25T08:11:12.865Z,39.66
2018-07-25T08:13:42.112Z,39.55
2018-07-25T08:16:10.861Z,40.55
2018-07-25T08:18:39.808Z,40.06
2018-07-25T08:21:09.151Z,37.81
2018-07-25T08:23:37.856Z,40.26
2018-07-25T08:26:06.763Z,38.32
2018-07-25T08:28:35.523Z,38.34
2018-07-25T08:31:04.247Z,37.85
2018-07-25T08:33:34.427Z,38.23
2018-07-25T08:36:03.235Z,38.27
2018-07-25T08:38:43.588Z,38.17
2018-07-25T08:41:12.407Z,38.11
2018-07-25T08:43:42.244Z,38.08
2018-07-25T08:46:11.910Z,38.28
2018-07-25T08:48:40.763Z,38.42
2018-07-25T08:51:09.559Z,38.89
2018-07-25T08:53:39.177Z,38.06
2018-07-25T08:56:08.116Z,38.75
2018-07-25T08:58:36.976Z,38.17
2018-07-25T09:01:05.738Z,39.50
2018-07-25T09:03:34.530Z,38.08
2018-07-25T09:06:03.374Z,37.92
2018-07-25T09:08:32.895Z,38.66
2018-07-25T09:11:02.750Z,38.47
2018-07-25T09:13:31.466Z,38.72
2018-07-25T09:16:00.426Z,39.98
2018-07-25T09:18:29.177Z,38.33
2018-07-25T09:20:58.752Z,38.57
2018-07-25T09:23:27.533Z,37.18
2018-07-25T09:25:56.309Z,38.04
2018-07-25T09:28:25.040Z,36.52
2018-07-25T09:30:55.346Z,37.22
2018-07-25T09:33:24.895Z,36.25
2018-07-25T09:35:53.656Z,36.46
2018-07-25T09:38:22.466Z,36.40
2018-07-25T09:40:51.225Z,37.20
2018-07-25T09:43:20.702Z,35.93
2018-07-25T09:45:49.470Z,36.06
2018-07-25T09:48:18.425Z,36.75
2018-07-25T09:50:47.914Z,36.96
2018-07-25T09:53:17.443Z,36.34
2018-07-25T09:55:47.264Z,35.45
2018-07-25T09:58:16.628Z,36.53
2018-07-25T10:00:47.560Z,35.99
2018-07-25T10:03:16.481Z,35.44
2018-07-25T10:05:45.656Z,35.65
2018-07-25T10:08:15.111Z,36.36
2018-07-25T10:10:44.887Z,35.28
2018-07-25T10:13:14.006Z,35.27
2018-07-25T10:15:45.098Z,36.28
2018-07-25T10:18:15.049Z,35.94
2018-07-25T10:20:44.993Z,35.46
2018-07-25T10:23:14.080Z,35.08
2018-07-25T10:25:43.007Z,36.26
2018-07-25T10:28:11.931Z,36.56
2018-07-25T10:30:40.695Z,36.08
2018-07-25T10:33:09.546Z,36.11
2018-07-25T10:35:38.291Z,34.40
2018-07-25T10:38:07.293Z,35.12
2018-07-25T10:40:36.999Z,35.64
2018-07-25T10:43:05.735Z,35.59
2018-07-25T10:45:34.553Z,33.79
2018-07-25T10:48:03.353Z,32.37
2018-07-25T10:50:32.980Z,31.60
2018-07-25T10:53:02.398Z,28.31
2018-07-25T10:55:31.444Z,27.77
2018-07-25T10:58:00.318Z,27.79
2018-07-25T11:00:29.205Z,30.86
2018-07-25T11:02:58.129Z,31.62
2018-07-25T11:05:26.835Z,32.94
2018-07-25T11:07:55.723Z,30.30
2018-07-25T11:10:24.498Z,28.83
2018-07-25T11:12:53.343Z,27.12
2018-07-25T11:15:22.124Z,29.07
2018-07-25T11:17:51.006Z,32.85
2018-07-25T11:20:19.784Z,33.43
2018-07-25T11:22:48.585Z,35.01
2018-07-25T11:25:17.330Z,34.71
2018-07-25T11:27:46.106Z,36.03
2018-07-25T11:30:14.840Z,36.24
2018-07-25T11:32:43.604Z,36.75
2018-07-25T11:35:12.388Z,36.17
2018-07-25T11:37:41.118Z,36.10
2018-07-25T11:40:09.945Z,36.19
2018-07-25T11:42:38.718Z,36.21
2018-07-25T11:45:07.446Z,36.94
2018-07-25T11:47:36.350Z,36.52
2018-07-25T11:50:05.251Z,37.27
2018-07-25T11:52:35.085Z,37.30
2018-07-25T11:55:05.223Z,37.04
2018-07-25T11:57:34.406Z,37.23
2018-07-25T12:00:03.421Z,37.19
2018-07-25T12:02:32.504Z,36.50
2018-07-25T12:05:01.863Z,37.64
2018-07-25T12:07:30.909Z,38.13
2018-07-25T12:09:59.888Z,37.18
2018-07-25T12:12:29.847Z,37.26
2018-07-25T12:14:59.078Z,37.82
2018-07-25T12:17:28.438Z,37.77
2018-07-25T12:19:57.618Z,37.90
2018-07-25T12:22:27.036Z,37.49
2018-07-25T12:24:56.235Z,37.84
2018-07-25T12:27:25.453Z,37.94
2018-07-25T12:29:54.332Z,37.29
2018-07-25T12:32:23.737Z,37.70
2018-07-25T12:34:53.365Z,37.07
2018-07-25T12:37:22.634Z,37.50
2018-07-25T12:39:53.238Z,36.98
2018-07-25T12:42:22.794Z,37.31
2018-07-25T12:44:53.097Z,38.56
2018-07-25T12:47:21.871Z,37.30
2018-07-25T12:49:51.180Z,37.61
2018-07-25T12:52:20.295Z,37.44
2018-07-25T12:54:49.434Z,38.35
2018-07-25T12:57:19.411Z,38.13
2018-07-25T12:59:48.552Z,38.33
2018-07-25T13:02:17.893Z,38.03
2018-07-25T13:04:47.162Z,38.94
2018-07-25T13:07:16.335Z,38.93
2018-07-25T13:09:45.132Z,38.37
2018-07-25T13:12:14.588Z,39.00
2018-07-25T13:14:43.990Z,37.92
2018-07-25T13:17:14.104Z,37.86
2018-07-25T13:19:43.043Z,37.86
2018-07-25T13:22:13.464Z,39.18
2018-07-25T13:24:44.150Z,38.39
2018-07-25T13:27:15.726Z,38.11
2018-07-25T13:29:45.991Z,39.18
2018-07-25T13:32:14.908Z,38.24
2018-07-25T13:34:43.740Z,39.96
2018-07-25T13:37:12.790Z,40.16
2018-07-25T13:39:42.341Z,40.41
2018-07-25T13:42:11.114Z,41.18
2018-07-25T13:44:39.917Z,39.99
2018-07-25T13:47:09.002Z,40.73
2018-07-25T13:49:37.863Z,40.58
2018-07-25T13:52:06.746Z,42.91
